createdAt,value
2022-08-18T00:01:32.094Z,27.80
2022-08-18T00:04:34.028Z,27.90
2022-08-18T00:06:54.868Z,28.00
2022-08-18T00:09:31.483Z,28.00
2022-08-18T00:12:08.181Z,28.00
2022-08-18T00:14:39.421Z,28.00
2022-08-18T00:17:11.043Z,28.00
2022-08-18T00:19:46.442Z,28.00
2022-08-18T00:22:23.219Z,28.00
2022-08-18T00:24:57.297Z,27.90
2022-08-18T00:27:31.478Z,28.00
2022-08-18T00:30:05.575Z,28.10
2022-08-18T00:32:41.148Z,28.10
2022-08-18T00:35:29.142Z,28.10
2022-08-18T00:38:02.503Z,28.00
2022-08-18T00:40:52.715Z,27.90
2022-08-18T00:43:46.776Z,27.90
2022-08-18T00:46:40.523Z,28.00
2022-08-18T00:49:11.927Z,28.00
2022-08-18T00:51:49.559Z,28.00
2022-08-18T00:54:26.004Z,27.80
2022-08-18T00:57:07.256Z,27.80
2022-08-18T01:00:05.815Z,27.90
2022-08-18T01:02:42.118Z,27.90
2022-08-18T01:05:42.665Z,28.00
2022-08-18T01:08:27.705Z,28.20
2022-08-18T01:11:04.154Z,28.30
2022-08-18T01:13:37.291Z,28.30
2022-08-18T01:16:27.571Z,28.40
2022-08-18T01:19:18.747Z,28.30
2022-08-18T01:21:57.878Z,28.40
2022-08-18T01:24:55.193Z,28.40
2022-08-18T01:27:27.046Z,28.40
2022-08-18T01:30:11.622Z,28.40
2022-08-18T01:32:46.479Z,28.60
2022-08-18T01:35:29.136Z,28.80
2022-08-18T01:38:09.708Z,29.00
2022-08-18T01:41:21.022Z,29.00
2022-08-18T01:43:33.120Z,29.10
2022-08-18T01:46:05.755Z,29.20
2022-08-18T01:48:39.163Z,29.30
2022-08-18T01:51:12.093Z,29.30
2022-08-18T01:53:43.921Z,29.40
2022-08-18T01:56:19.074Z,29.50
2022-08-18T01:58:50.409Z,29.50
2022-08-18T02:01:36.272Z,29.60
2022-08-18T02:04:33.720Z,29.70
2022-08-18T02:07:06.632Z,29.80
2022-08-18T02:09:39.214Z,29.90
2022-08-18T02:12:14.037Z,29.90
2022-08-18T02:15:05.551Z,29.70
2022-08-18T02:17:48.321Z,29.70
2022-08-18T02:20:22.257Z,29.80
2022-08-18T02:25:38.921Z,29.90
2022-08-18T02:28:10.481Z,30.10
2022-08-18T02:30:41.830Z,30.20
2022-08-18T02:33:15.353Z,30.40
2022-08-18T02:35:47.785Z,30.40
2022-08-18T02:38:19.257Z,30.30
2022-08-18T02:41:07.993Z,30.40
2022-08-18T02:43:40.911Z,30.40
2022-08-18T02:46:14.023Z,30.40
2022-08-18T02:48:45.059Z,30.60
2022-08-18T02:51:18.897Z,30.70
2022-08-18T02:53:50.853Z,30.90
2022-08-18T02:56:35.724Z,31.00
2022-08-18T02:59:17.058Z,30.90
2022-08-18T03:01:52.789Z,30.90
2022-08-18T03:04:30.708Z,31.00
2022-08-18T03:07:08.551Z,31.00
2022-08-18T03:10:05.710Z,31.10
2022-08-18T03:12:51.653Z,31.00
2022-08-18T03:15:23.200Z,31.10
2022-08-18T03:17:59.732Z,31.20
2022-08-18T03:20:32.473Z,31.40
2022-08-18T03:23:09.498Z,31.50
2022-08-18T03:26:00.961Z,31.60
2022-08-18T03:28:32.569Z,31.70
2022-08-18T03:31:04.020Z,31.80
2022-08-18T03:33:35.165Z,31.80
2022-08-18T03:36:08.853Z,32.10
2022-08-18T03:38:41.144Z,32.40
2022-08-18T03:41:57.457Z,31.90
2022-08-18T03:44:14.740Z,31.80
2022-08-18T03:46:50.787Z,32.20
2022-08-18T03:49:22.809Z,32.30
2022-08-18T03:51:54.180Z,32.10
2022-08-18T03:54:25.638Z,32.20
2022-08-18T03:56:57.285Z,32.30
2022-08-18T03:59:32.393Z,32.30
2022-08-18T04:02:06.722Z,32.30
2022-08-18T04:04:58.013Z,32.40
2022-08-18T04:07:29.458Z,32.30
2022-08-18T04:10:00.807Z,32.40
2022-08-18T04:12:32.986Z,32.60
2022-08-18T04:15:04.883Z,33.00
2022-08-18T04:17:36.189Z,33.20
2022-08-18T04:20:27.482Z,33.60
2022-08-18T04:22:58.896Z,33.70
2022-08-18T04:25:32.818Z,34.10
2022-08-18T04:28:04.874Z,34.60
2022-08-18T04:30:36.177Z,34.70
2022-08-18T04:33:07.828Z,34.70
2022-08-18T04:35:39.172Z,34.30
2022-08-18T04:38:11.533Z,34.30
2022-08-18T04:40:44.473Z,34.10
2022-08-18T04:43:19.635Z,34.10
2022-08-18T04:45:52.550Z,34.00
2022-08-18T04:48:24.334Z,34.00
2022-08-18T04:50:56.793Z,34.20
2022-08-18T04:53:46.174Z,34.30
2022-08-18T04:56:26.954Z,34.80
2022-08-18T04:59:01.836Z,34.20
2022-08-18T05:01:37.113Z,33.80
2022-08-18T05:04:09.334Z,33.70
2022-08-18T05:06:40.601Z,33.70
2022-08-18T05:09:16.713Z,34.00
2022-08-18T05:11:54.367Z,33.90
2022-08-18T05:14:26.567Z,33.70
2022-08-18T05:17:01.610Z,33.70
2022-08-18T05:19:33.888Z,33.50
2022-08-18T05:22:15.941Z,33.80
2022-08-18T05:24:50.210Z,34.20
2022-08-18T05:27:22.839Z,34.60
2022-08-18T05:29:54.222Z,34.70
2022-08-18T05:32:42.573Z,35.00
2022-08-18T05:35:27.172Z,34.90
2022-08-18T05:38:28.785Z,34.40
2022-08-18T05:41:27.852Z,34.60
2022-08-18T05:44:03.075Z,34.60
2022-08-18T05:46:48.961Z,34.60
2022-08-18T05:49:22.439Z,34.50
2022-08-18T05:51:56.175Z,34.80
2022-08-18T05:54:50.803Z,35.10
2022-08-18T05:57:24.202Z,35.00
2022-08-18T05:59:56.900Z,34.70
2022-08-18T06:02:44.664Z,34.40
2022-08-18T06:05:23.013Z,34.10
2022-08-18T06:08:14.266Z,33.90
2022-08-18T06:10:50.329Z,33.70
2022-08-18T06:13:22.912Z,33.70
2022-08-18T06:16:03.979Z,33.80
2022-08-18T06:18:54.809Z,33.70
2022-08-18T06:21:53.918Z,33.80
2022-08-18T06:24:40.566Z,34.10
2022-08-18T06:27:34.278Z,34.50
2022-08-18T06:30:47.895Z,34.30
2022-08-18T06:33:33.163Z,34.20
2022-08-18T06:36:30.658Z,34.10
2022-08-18T06:39:24.339Z,34.10
2022-08-18T06:41:56.654Z,33.90
2022-08-18T06:44:50.401Z,34.20
2022-08-18T06:47:44.501Z,34.30
2022-08-18T06:50:24.678Z,34.30
2022-08-18T06:52:57.405Z,34.30
2022-08-18T06:56:25.830Z,34.30
2022-08-18T06:59:37.345Z,34.60
2022-08-18T07:02:57.302Z,35.00
2022-08-18T07:05:34.226Z,35.10
2022-08-18T07:08:43.442Z,35.30
2022-08-18T07:11:28.358Z,35.50
2022-08-18T07:14:25.860Z,35.60
2022-08-18T07:17:15.310Z,35.50
2022-08-18T07:19:46.666Z,35.60
2022-08-18T07:22:19.459Z,35.70
2022-08-18T07:25:06.033Z,36.00
2022-08-18T07:28:12.384Z,36.20
2022-08-18T07:31:00.230Z,36.00
2022-08-18T07:33:35.338Z,35.60
2022-08-18T07:36:08.592Z,35.20
2022-08-18T07:39:16.066Z,35.10
2022-08-18T07:42:05.915Z,35.00
2022-08-18T07:44:48.101Z,34.70
2022-08-18T07:47:49.331Z,34.50
2022-08-18T07:50:57.921Z,34.40
2022-08-18T07:53:54.603Z,34.70
2022-08-18T07:56:46.543Z,35.00
2022-08-18T07:59:38.511Z,35.00
2022-08-18T08:02:19.040Z,34.90
2022-08-18T08:05:19.873Z,35.20
2022-08-18T08:08:33.885Z,35.30
2022-08-18T08:11:15.444Z,34.80
2022-08-18T08:13:55.553Z,34.50
2022-08-18T08:16:49.273Z,34.20
2022-08-18T08:19:59.334Z,34.10
2022-08-18T08:23:34.260Z,33.80
2022-08-18T08:26:23.787Z,33.70
2022-08-18T08:29:32.843Z,33.70
2022-08-18T08:32:28.712Z,33.90
2022-08-18T08:35:11.532Z,34.10
2022-08-18T08:38:42.287Z,34.50
2022-08-18T08:41:34.035Z,34.80
2022-08-18T08:44:14.404Z,34.90
2022-08-18T08:47:04.704Z,35.10
2022-08-18T08:49:44.888Z,35.10
2022-08-18T08:52:23.302Z,35.20
2022-08-18T08:55:11.810Z,35.30
2022-08-18T08:57:50.843Z,35.20
2022-08-18T09:00:22.622Z,35.30
2022-08-18T09:03:30.409Z,35.40
2022-08-18T09:06:23.091Z,35.30
2022-08-18T09:09:05.808Z,35.10
2022-08-18T09:12:19.826Z,35.40
2022-08-18T09:15:23.955Z,35.50
2022-08-18T09:18:20.579Z,35.60
2022-08-18T09:21:07.364Z,35.90
2022-08-18T09:23:45.684Z,35.40
2022-08-18T09:26:38.956Z,35.60
2022-08-18T09:29:43.980Z,35.60
2022-08-18T09:32:22.992Z,35.50
2022-08-18T09:35:31.517Z,35.30
2022-08-18T09:38:36.593Z,35.20
2022-08-18T09:41:34.780Z,35.50
2022-08-18T09:44:18.025Z,35.40
2022-08-18T09:46:59.933Z,35.50
2022-08-18T09:49:32.552Z,35.50
2022-08-18T09:52:25.422Z,35.40
2022-08-18T09:55:02.030Z,35.30
2022-08-18T09:57:42.095Z,35.10
2022-08-18T10:00:14.752Z,35.10
2022-08-18T10:03:12.632Z,35.10
2022-08-18T10:05:57.641Z,35.10
2022-08-18T10:09:17.816Z,35.00
2022-08-18T10:12:18.195Z,35.10
2022-08-18T10:15:01.918Z,35.00
2022-08-18T10:17:50.005Z,34.80
2022-08-18T10:20:33.249Z,34.60
2022-08-18T10:23:08.384Z,34.50
2022-08-18T10:25:44.512Z,34.20
2022-08-18T10:28:56.299Z,34.10
2022-08-18T10:31:30.378Z,33.90
2022-08-18T10:34:16.501Z,33.80
2022-08-18T10:36:52.434Z,33.70
2022-08-18T10:39:45.908Z,33.50
2022-08-18T10:42:31.673Z,33.30
2022-08-18T10:45:36.512Z,33.10
2022-08-18T10:48:20.658Z,33.10
2022-08-18T10:51:04.448Z,32.90
2022-08-18T10:54:18.394Z,32.70
2022-08-18T10:56:54.437Z,32.40
2022-08-18T10:59:57.356Z,32.20
2022-08-18T11:02:37.872Z,31.90
2022-08-18T11:05:14.272Z,31.70
2022-08-18T11:07:52.255Z,31.70
2022-08-18T11:11:32.851Z,31.60
2022-08-18T11:14:24.165Z,31.60
2022-08-18T11:17:07.024Z,31.40
2022-08-18T11:19:46.725Z,31.30
2022-08-18T11:22:36.980Z,31.30
2022-08-18T11:25:30.910Z,31.30
2022-08-18T11:28:03.834Z,31.10
2022-08-18T11:30:43.491Z,31.10
2022-08-18T11:36:18.981Z,31.00
2022-08-18T11:38:59.636Z,31.00
2022-08-18T11:41:47.794Z,30.90
2022-08-18T11:44:26.362Z,31.00
2022-08-18T11:47:15.182Z,31.00
2022-08-18T11:50:09.666Z,30.90
2022-08-18T11:52:55.306Z,30.90
2022-08-18T11:55:36.005Z,30.70
2022-08-18T11:58:12.685Z,30.60
2022-08-18T12:00:57.226Z,30.80
2022-08-18T12:03:50.579Z,30.60
2022-08-18T12:06:32.598Z,30.60
2022-08-18T12:09:09.115Z,30.60
2022-08-18T12:11:51.377Z,30.50
2022-08-18T12:14:30.123Z,30.60
2022-08-18T12:17:09.721Z,30.30
2022-08-18T12:19:42.362Z,30.30
2022-08-18T12:22:24.430Z,30.30
2022-08-18T12:24:56.463Z,30.30
2022-08-18T12:27:31.971Z,30.30
2022-08-18T12:30:04.575Z,30.10
2022-08-18T12:35:49.930Z,30.10
2022-08-18T12:38:21.525Z,30.20
2022-08-18T12:40:53.543Z,30.10
2022-08-18T12:43:24.736Z,29.90
2022-08-18T12:46:04.607Z,29.90
2022-08-18T12:48:42.318Z,29.90
2022-08-18T12:51:14.945Z,29.80
2022-08-18T12:53:58.337Z,29.90
2022-08-18T12:56:33.758Z,29.80
2022-08-18T12:59:10.102Z,29.80
2022-08-18T13:01:52.083Z,29.50
2022-08-18T13:04:30.857Z,29.50
2022-08-18T13:07:05.754Z,29.60
2022-08-18T13:09:52.856Z,29.60
2022-08-18T13:12:27.374Z,29.70
2022-08-18T13:14:58.927Z,29.60
2022-08-18T13:17:50.320Z,29.60
2022-08-18T13:20:27.685Z,29.60
2022-08-18T13:22:59.158Z,29.60
2022-08-18T13:25:38.331Z,29.40
2022-08-18T13:28:13.057Z,29.50
2022-08-18T13:30:47.457Z,29.40
2022-08-18T13:33:57.893Z,29.20
2022-08-18T13:36:49.096Z,29.30
2022-08-18T13:39:33.886Z,29.40
2022-08-18T13:42:21.442Z,29.40
2022-08-18T13:45:23.357Z,29.30
2022-08-18T13:47:58.608Z,29.20
2022-08-18T13:50:34.813Z,28.90
2022-08-18T13:53:08.003Z,29.00
2022-08-18T13:55:39.740Z,29.10
2022-08-18T13:58:21.191Z,29.10
2022-08-18T14:03:54.390Z,29.00
2022-08-18T14:06:46.977Z,29.00
2022-08-18T14:12:33.123Z,28.90
2022-08-18T14:17:53.451Z,28.80
2022-08-18T14:20:44.722Z,28.90
2022-08-18T14:23:39.598Z,28.90
2022-08-18T14:26:41.916Z,28.90
2022-08-18T14:29:16.506Z,28.70
2022-08-18T14:31:53.319Z,28.70
2022-08-18T14:34:26.160Z,28.70
2022-08-18T14:36:59.822Z,28.90
2022-08-18T14:39:40.371Z,28.80
2022-08-18T14:42:18.761Z,28.60
2022-08-18T14:45:17.896Z,28.60
2022-08-18T14:47:58.045Z,28.60
2022-08-18T14:50:38.888Z,28.60
2022-08-18T14:53:11.107Z,28.70
2022-08-18T14:55:44.732Z,28.80
2022-08-18T14:58:35.357Z,28.80
2022-08-18T15:01:34.807Z,28.70
2022-08-18T15:04:19.322Z,28.80
2022-08-18T15:06:56.643Z,28.70
2022-08-18T15:09:32.421Z,28.50
2022-08-18T15:14:49.888Z,28.50
2022-08-18T15:17:29.458Z,28.50
2022-08-18T15:20:01.675Z,28.50
2022-08-18T15:23:06.323Z,28.40
2022-08-18T15:25:51.238Z,28.40
2022-08-18T15:28:46.744Z,28.40
2022-08-18T15:34:14.750Z,28.40
2022-08-18T15:36:54.605Z,28.40
2022-08-18T15:39:27.670Z,28.40
2022-08-18T15:42:00.794Z,28.40
2022-08-18T15:44:35.605Z,28.40
2022-08-18T15:47:09.536Z,28.40
2022-08-18T15:50:25.235Z,28.30
2022-08-18T15:55:51.238Z,28.30
2022-08-18T15:58:26.777Z,28.40
2022-08-18T16:00:58.899Z,28.20
2022-08-18T16:03:30.551Z,28.20
2022-08-18T16:06:04.099Z,28.10
2022-08-18T16:08:38.301Z,28.00
2022-08-18T16:11:28.926Z,28.00
2022-08-18T16:14:01.596Z,28.10
2022-08-18T16:16:36.251Z,28.20
2022-08-18T16:19:08.895Z,28.20
2022-08-18T16:21:44.863Z,28.20
2022-08-18T16:24:18.420Z,28.20
2022-08-18T16:26:49.736Z,27.80
2022-08-18T16:29:23.426Z,27.80
2022-08-18T16:31:55.966Z,28.00
2022-08-18T16:34:47.116Z,28.10
2022-08-18T16:37:18.692Z,28.10
2022-08-18T16:39:51.296Z,28.10
2022-08-18T16:42:22.929Z,28.00
2022-08-18T16:44:55.316Z,28.00
2022-08-18T16:47:26.834Z,28.10
2022-08-18T16:49:59.168Z,28.10
2022-08-18T16:52:30.565Z,28.00
2022-08-18T16:55:01.948Z,27.80
2022-08-18T16:57:53.949Z,27.80
2022-08-18T17:00:46.387Z,27.80
2022-08-18T17:04:14.829Z,27.90
2022-08-18T17:06:53.110Z,27.90
2022-08-18T17:09:25.969Z,27.80
2022-08-18T17:11:58.368Z,27.70
2022-08-18T17:14:52.226Z,27.80
2022-08-18T17:17:23.395Z,27.90
2022-08-18T17:19:55.332Z,27.90
2022-08-18T17:22:26.716Z,28.00
2022-08-18T17:25:04.029Z,28.00
2022-08-18T17:27:37.922Z,28.10
2022-08-18T17:30:34.624Z,28.10
2022-08-18T17:33:17.824Z,28.00
2022-08-18T17:35:49.681Z,27.70
2022-08-18T17:38:35.623Z,27.80
2022-08-18T17:41:08.730Z,27.90
2022-08-18T17:46:28.729Z,28.00
2022-08-18T17:49:14.705Z,28.00
2022-08-18T17:51:55.277Z,28.00
2022-08-18T17:54:47.628Z,27.90
2022-08-18T17:57:27.844Z,27.80
2022-08-18T18:00:17.099Z,27.90
2022-08-18T18:02:49.380Z,28.00
2022-08-18T18:05:22.930Z,28.00
2022-08-18T18:07:54.309Z,28.00
2022-08-18T18:10:31.634Z,27.90
2022-08-18T18:13:11.565Z,27.90
2022-08-18T18:15:47.646Z,27.80
2022-08-18T18:18:27.097Z,27.80
2022-08-18T18:21:24.492Z,27.80
2022-08-18T18:24:17.253Z,27.90
2022-08-18T18:26:55.410Z,27.90
2022-08-18T18:29:37.834Z,27.70
2022-08-18T18:32:33.712Z,27.70
2022-08-18T18:35:23.793Z,27.50
2022-08-18T18:38:01.467Z,27.60
2022-08-18T18:40:34.982Z,27.70
2022-08-18T18:43:30.755Z,27.70
2022-08-18T18:46:18.605Z,27.70
2022-08-18T18:49:02.721Z,27.70
2022-08-18T18:52:01.107Z,27.70
2022-08-18T18:54:34.341Z,27.70
2022-08-18T18:57:12.477Z,27.60
2022-08-18T19:02:40.208Z,27.60
2022-08-18T19:05:23.189Z,27.60
2022-08-18T19:08:09.180Z,27.60
2022-08-18T19:10:50.146Z,27.50
2022-08-18T19:13:47.149Z,27.40
2022-08-18T19:16:48.476Z,27.40
2022-08-18T19:19:38.170Z,27.30
2022-08-18T19:22:35.862Z,27.50
2022-08-18T19:25:10.494Z,27.50
2022-08-18T19:28:08.972Z,27.40
2022-08-18T19:30:44.565Z,27.40
2022-08-18T19:33:25.908Z,27.30
2022-08-18T19:36:26.724Z,27.20
2022-08-18T19:39:21.486Z,27.40
2022-08-18T19:42:03.484Z,27.30
2022-08-18T19:45:06.511Z,27.30
2022-08-18T19:47:56.277Z,27.30
2022-08-18T19:50:31.997Z,27.30
2022-08-18T19:53:21.863Z,27.30
2022-08-18T19:56:07.225Z,27.30
2022-08-18T19:59:18.257Z,27.30
2022-08-18T20:02:01.925Z,27.30
2022-08-18T20:05:01.794Z,27.30
2022-08-18T20:08:04.615Z,27.30
2022-08-18T20:10:38.475Z,27.40
2022-08-18T20:13:25.191Z,27.30
2022-08-18T20:16:15.476Z,27.20
2022-08-18T20:19:16.077Z,27.10
2022-08-18T20:21:49.598Z,27.00
2022-08-18T20:25:06.360Z,27.10
2022-08-18T20:27:46.059Z,27.00
2022-08-18T20:30:23.034Z,27.10
2022-08-18T20:33:36.293Z,27.10
2022-08-18T20:36:27.317Z,27.20
2022-08-18T20:39:02.316Z,27.10
2022-08-18T20:41:46.766Z,27.10
2022-08-18T20:44:28.968Z,26.90
2022-08-18T20:47:50.220Z,27.10
2022-08-18T20:50:45.233Z,27.10
2022-08-18T20:53:50.254Z,27.00
2022-08-18T20:56:32.528Z,27.00
2022-08-18T20:59:21.269Z,27.00
2022-08-18T21:01:59.634Z,26.90
2022-08-18T21:04:53.078Z,26.90
2022-08-18T21:07:37.365Z,27.00
2022-08-18T21:10:22.540Z,27.00
2022-08-18T21:13:00.535Z,27.00
2022-08-18T21:15:38.807Z,27.00
2022-08-18T21:18:22.735Z,27.00
2022-08-18T21:20:57.808Z,26.90
2022-08-18T21:23:35.226Z,26.90
2022-08-18T21:26:13.802Z,27.00
2022-08-18T21:28:49.366Z,26.90
2022-08-18T21:31:47.011Z,27.00
2022-08-18T21:34:44.799Z,27.00
2022-08-18T21:37:19.558Z,27.00
2022-08-18T21:39:57.753Z,27.00
2022-08-18T21:42:44.873Z,27.00
2022-08-18T21:45:45.889Z,27.00
2022-08-18T21:48:20.448Z,27.10
2022-08-18T21:50:55.217Z,27.20
2022-08-18T21:53:29.274Z,27.10
2022-08-18T21:56:02.824Z,27.00
2022-08-18T21:58:36.849Z,26.90
2022-08-18T22:01:11.038Z,26.80
2022-08-18T22:04:04.439Z,26.90
2022-08-18T22:06:48.873Z,26.90
2022-08-18T22:09:42.430Z,26.80
2022-08-18T22:12:53.430Z,26.80
2022-08-18T22:15:46.131Z,26.90
2022-08-18T22:18:20.155Z,26.90
2022-08-18T22:21:02.345Z,26.90
2022-08-18T22:24:05.668Z,26.90
2022-08-18T22:26:39.780Z,26.90
2022-08-18T22:29:29.005Z,27.00
2022-08-18T22:32:01.397Z,27.00
2022-08-18T22:34:35.702Z,27.10
2022-08-18T22:37:16.338Z,27.20
2022-08-18T22:40:06.705Z,27.10
2022-08-18T22:42:38.384Z,27.10
2022-08-18T22:45:16.904Z,27.10
2022-08-18T22:47:48.174Z,27.00
2022-08-18T22:50:20.016Z,27.10
2022-08-18T22:52:52.224Z,27.10
2022-08-18T22:55:24.172Z,27.20
2022-08-18T22:57:57.213Z,27.10
2022-08-18T23:00:28.878Z,27.00
2022-08-18T23:03:00.754Z,27.20
2022-08-18T23:05:32.082Z,27.20
2022-08-18T23:08:04.154Z,27.20
2022-08-18T23:10:35.305Z,27.30
2022-08-18T23:13:06.308Z,27.30
2022-08-18T23:15:46.638Z,27.30
2022-08-18T23:18:21.036Z,27.30
2022-08-18T23:21:06.187Z,27.30
2022-08-18T23:23:37.412Z,27.40
2022-08-18T23:26:12.783Z,27.40
2022-08-18T23:28:49.854Z,27.50
2022-08-18T23:31:24.297Z,27.50
2022-08-18T23:34:15.395Z,27.50
2022-08-18T23:36:47.650Z,27.60
2022-08-18T23:39:18.909Z,27.70
2022-08-18T23:41:52.092Z,27.80
2022-08-18T23:44:27.781Z,27.80
2022-08-18T23:47:01.407Z,27.90
2022-08-18T23:49:34.369Z,28.00
2022-08-18T23:52:28.719Z,28.00
2022-08-18T23:55:00.537Z,27.90
2022-08-18T23:57:32.007Z,27.90
